sensor_id;sensor_type;location;lat;lon;timestamp;pressure;altitude;pressure_sealevel;temperature;humidity
41140;BME280;26881;48.784;9.192;2024-03-17T00:03:00;99314.44;;;7.02;100.00
41140;BME280;26881;48.784;9.192;2024-03-17T00:08:21;99325.84;;;6.97;100.00
41140;BME280;26881;48.784;9.192;2024-03-17T00:13:42;99321.19;;;7.07;100.00
41140;BME280;26881;48.784;9.192;2024-03-17T00:19:03;99314.53;;;7.25;100.00
41140;BME280;26881;48.784;9.192;2024-03-17T00:24:24;99327.34;;;7.05;100.00
41140;BME280;26881;48.784;9.192;2024-03-17T00:29:45;99313.56;;;7.01;100.00
41140;BME280;26881;48.784;9.192;2024-03-17T00:35:07;99305.78;;;7.01;100.00
41140;BME280;26881;48.784;9.192;2024-03-17T00:40:29;99303.44;;;6.93;100.00
41140;BME280;26881;48.784;9.192;2024-03-17T00:45:53;99296.91;;;6.80;100.00
41140;BME280;26881;48.784;9.192;2024-03-17T00:51:15;99299.78;;;6.72;100.00
41140;BME280;26881;48.784;9.192;2024-03-17T00:56:36;99295.13;;;6.82;100.00
41140;BME280;26881;48.784;9.192;2024-03-17T01:01:56;99292.75;;;6.76;100.00
41140;BME280;26881;48.784;9.192;2024-03-17T01:07:18;99291.06;;;6.73;100.00
41140;BME280;26881;48.784;9.192;2024-03-17T01:12:39;99293.59;;;6.77;100.00
41140;BME280;26881;48.784;9.192;2024-03-17T01:18:00;99284.06;;;6.75;100.00
41140;BME280;26881;48.784;9.192;2024-03-17T01:23:21;99284.22;;;6.71;100.00
41140;BME280;26881;48.784;9.192;2024-03-17T01:28:42;99282.94;;;6.58;100.00
41140;BME280;26881;48.784;9.192;2024-03-17T01:34:03;99277.06;;;6.51;100.00
41140;BME280;26881;48.784;9.192;2024-03-17T01:39:24;99266.97;;;6.42;100.00
41140;BME280;26881;48.784;9.192;2024-03-17T01:44:45;99268.44;;;6.50;100.00
41140;BME280;26881;48.784;9.192;2024-03-17T01:50:06;99258.81;;;6.52;100.00
41140;BME280;26881;48.784;9.192;2024-03-17T01:55:29;99250.53;;;6.41;100.00
41140;BME280;26881;48.784;9.192;2024-03-17T02:00:50;99240.16;;;6.40;100.00
41140;BME280;26881;48.784;9.192;2024-03-17T02:06:12;99242.88;;;6.37;100.00
41140;BME280;26881;48.784;9.192;2024-03-17T02:11:33;99226.22;;;6.42;100.00
41140;BME280;26881;48.784;9.192;2024-03-17T02:16:55;99220.88;;;6.47;100.00
41140;BME280;26881;48.784;9.192;2024-03-17T02:22:16;99217.47;;;6.45;100.00
41140;BME280;26881;48.784;9.192;2024-03-17T02:27:37;99219.09;;;6.49;100.00
41140;BME280;26881;48.784;9.192;2024-03-17T02:32:58;99208.66;;;6.50;100.00
41140;BME280;26881;48.784;9.192;2024-03-17T02:38:19;99209.44;;;6.52;100.00
41140;BME280;26881;48.784;9.192;2024-03-17T02:44:00;99199.69;;;6.59;100.00
41140;BME280;26881;48.784;9.192;2024-03-17T02:49:21;99204.84;;;6.61;100.00
41140;BME280;26881;48.784;9.192;2024-03-17T02:54:42;99202.22;;;6.62;100.00
41140;BME280;26881;48.784;9.192;2024-03-17T03:00:04;99194.34;;;6.64;100.00
41140;BME280;26881;48.784;9.192;2024-03-17T03:05:25;99192.03;;;6.54;100.00
41140;BME280;26881;48.784;9.192;2024-03-17T03:10:46;99206.78;;;6.54;100.00
41140;BME280;26881;48.784;9.192;2024-03-17T03:16:09;99215.34;;;6.58;100.00
41140;BME280;26881;48.784;9.192;2024-03-17T03:21:31;99211.94;;;6.56;100.00
41140;BME280;26881;48.784;9.192;2024-03-17T03:26:52;99209.50;;;6.51;100.00
41140;BME280;26881;48.784;9.192;2024-03-17T03:32:13;99201.19;;;6.40;100.00
41140;BME280;26881;48.784;9.192;2024-03-17T03:37:34;99199.84;;;6.28;100.00
41140;BME280;26881;48.784;9.192;2024-03-17T03:42:55;99197.25;;;6.28;100.00
41140;BME280;26881;48.784;9.192;2024-03-17T03:48:17;99195.44;;;6.30;100.00
41140;BME280;26881;48.784;9.192;2024-03-17T03:53:38;99192.16;;;6.25;100.00
41140;BME280;26881;48.784;9.192;2024-03-17T03:59:00;99188.13;;;6.15;100.00
41140;BME280;26881;48.784;9.192;2024-03-17T04:04:21;99198.06;;;6.02;100.00
41140;BME280;26881;48.784;9.192;2024-03-17T04:09:42;99192.91;;;6.00;100.00
41140;BME280;26881;48.784;9.192;2024-03-17T04:15:03;99191.09;;;6.02;100.00
41140;BME280;26881;48.784;9.192;2024-03-17T04:20:26;99197.28;;;5.98;100.00
41140;BME280;26881;48.784;9.192;2024-03-17T04:25:48;99203.03;;;6.08;100.00
41140;BME280;26881;48.784;9.192;2024-03-17T04:31:09;99197.00;;;6.07;100.00
41140;BME280;26881;48.784;9.192;2024-03-17T04:36:32;99195.19;;;6.11;100.00
41140;BME280;26881;48.784;9.192;2024-03-17T04:41:53;99202.16;;;6.09;100.00
41140;BME280;26881;48.784;9.192;2024-03-17T04:47:14;99191.91;;;6.04;100.00
41140;BME280;26881;48.784;9.192;2024-03-17T04:52:34;99200.72;;;5.99;100.00
41140;BME280;26881;48.784;9.192;2024-03-17T04:57:55;99207.03;;;5.90;100.00
41140;BME280;26881;48.784;9.192;2024-03-17T05:03:16;99203.09;;;5.77;100.00
41140;BME280;26881;48.784;9.192;2024-03-17T05:08:37;99193.78;;;5.69;100.00
41140;BME280;26881;48.784;9.192;2024-03-17T05:13:59;99201.66;;;5.66;100.00
41140;BME280;26881;48.784;9.192;2024-03-17T05:19:19;99200.31;;;5.53;100.00
41140;BME280;26881;48.784;9.192;2024-03-17T05:24:40;99209.97;;;5.48;100.00
41140;BME280;26881;48.784;9.192;2024-03-17T05:30:01;99212.50;;;5.49;100.00
41140;BME280;26881;48.784;9.192;2024-03-17T05:35:22;99216.63;;;5.57;100.00
41140;BME280;26881;48.784;9.192;2024-03-17T05:46:16;99205.31;;;5.59;100.00
41140;BME280;26881;48.784;9.192;2024-03-17T05:51:38;99206.34;;;5.54;100.00
41140;BME280;26881;48.784;9.192;2024-03-17T05:56:59;99214.13;;;5.54;100.00
41140;BME280;26881;48.784;9.192;2024-03-17T06:02:20;99209.97;;;5.48;100.00
41140;BME280;26881;48.784;9.192;2024-03-17T06:07:41;99199.59;;;5.48;100.00
41140;BME280;26881;48.784;9.192;2024-03-17T06:13:02;99198.56;;;5.54;100.00
41140;BME280;26881;48.784;9.192;2024-03-17T06:18:23;99204.03;;;5.43;100.00
41140;BME280;26881;48.784;9.192;2024-03-17T06:23:44;99208.34;;;5.44;100.00
41140;BME280;26881;48.784;9.192;2024-03-17T06:29:05;99196.00;;;5.52;100.00
41140;BME280;26881;48.784;9.192;2024-03-17T06:34:26;99193.00;;;5.66;100.00
41140;BME280;26881;48.784;9.192;2024-03-17T06:39:47;99185.63;;;5.82;100.00
41140;BME280;26881;48.784;9.192;2024-03-17T06:45:08;99193.00;;;5.97;100.00
41140;BME280;26881;48.784;9.192;2024-03-17T06:50:29;99193.31;;;6.15;100.00
41140;BME280;26881;48.784;9.192;2024-03-17T06:55:57;99185.50;;;6.43;100.00
41140;BME280;26881;48.784;9.192;2024-03-17T07:01:18;99185.88;;;6.84;100.00
41140;BME280;26881;48.784;9.192;2024-03-17T07:06:40;99185.09;;;7.07;100.00
41140;BME280;26881;48.784;9.192;2024-03-17T07:12:00;99183.22;;;7.59;100.00
41140;BME280;26881;48.784;9.192;2024-03-17T07:17:21;99179.69;;;7.84;100.00
41140;BME280;26881;48.784;9.192;2024-03-17T07:22:43;99180.84;;;7.76;100.00
41140;BME280;26881;48.784;9.192;2024-03-17T07:28:04;99182.13;;;8.10;100.00
41140;BME280;26881;48.784;9.192;2024-03-17T07:33:26;99183.84;;;8.11;100.00
41140;BME280;26881;48.784;9.192;2024-03-17T07:38:47;99179.81;;;8.24;100.00
41140;BME280;26881;48.784;9.192;2024-03-17T07:44:08;99173.84;;;8.44;100.00
41140;BME280;26881;48.784;9.192;2024-03-17T07:49:29;99171.47;;;9.01;100.00
41140;BME280;26881;48.784;9.192;2024-03-17T07:54:50;99173.00;;;9.46;100.00
41140;BME280;26881;48.784;9.192;2024-03-17T08:00:11;99172.13;;;9.65;97.68
41140;BME280;26881;48.784;9.192;2024-03-17T08:05:38;99173.31;;;10.33;94.51
41140;BME280;26881;48.784;9.192;2024-03-17T08:11:00;99166.09;;;10.39;90.67
41140;BME280;26881;48.784;9.192;2024-03-17T08:16:23;99159.03;;;10.58;92.47
41140;BME280;26881;48.784;9.192;2024-03-17T08:21:44;99152.09;;;10.92;87.61
41140;BME280;26881;48.784;9.192;2024-03-17T08:27:06;99154.31;;;11.17;87.15
41140;BME280;26881;48.784;9.192;2024-03-17T08:32:27;99160.50;;;11.32;85.34
41140;BME280;26881;48.784;9.192;2024-03-17T08:37:48;99160.78;;;11.43;84.93
41140;BME280;26881;48.784;9.192;2024-03-17T08:43:09;99155.06;;;11.52;82.65
41140;BME280;26881;48.784;9.192;2024-03-17T08:48:31;99147.22;;;12.16;79.57
41140;BME280;26881;48.784;9.192;2024-03-17T08:53:53;99139.84;;;13.42;72.25
41140;BME280;26881;48.784;9.192;2024-03-17T08:59:14;99133.16;;;13.65;68.18
41140;BME280;26881;48.784;9.192;2024-03-17T09:04:35;99132.59;;;14.28;64.27
41140;BME280;26881;48.784;9.192;2024-03-17T09:09:56;99125.47;;;15.60;59.70
41140;BME280;26881;48.784;9.192;2024-03-17T09:15:17;99119.16;;;16.23;55.74
41140;BME280;26881;48.784;9.192;2024-03-17T09:20:38;99107.97;;;16.20;56.00
41140;BME280;26881;48.784;9.192;2024-03-17T09:26:02;99106.63;;;16.85;53.76
41140;BME280;26881;48.784;9.192;2024-03-17T09:31:23;99099.38;;;16.76;53.33
41140;BME280;26881;48.784;9.192;2024-03-17T09:36:44;99102.19;;;16.39;54.29
41140;BME280;26881;48.784;9.192;2024-03-17T09:42:07;99094.66;;;16.57;52.73
41140;BME280;26881;48.784;9.192;2024-03-17T09:47:36;99089.97;;;17.52;50.23
41140;BME280;26881;48.784;9.192;2024-03-17T09:52:58;99080.63;;;18.03;47.82
41140;BME280;26881;48.784;9.192;2024-03-17T09:58:19;99101.41;;;17.08;48.41
41140;BME280;26881;48.784;9.192;2024-03-17T10:03:47;99100.16;;;17.79;44.72
41140;BME280;26881;48.784;9.192;2024-03-17T10:09:15;99076.13;;;18.68;41.42
41140;BME280;26881;48.784;9.192;2024-03-17T10:14:57;99075.06;;;19.32;41.77
41140;BME280;26881;48.784;9.192;2024-03-17T10:20:20;99072.91;;;19.16;40.27
41140;BME280;26881;48.784;9.192;2024-03-17T10:25:41;99070.63;;;19.02;39.28
41140;BME280;26881;48.784;9.192;2024-03-17T10:31:02;99075.22;;;18.04;40.35
41140;BME280;26881;48.784;9.192;2024-03-17T10:36:23;99088.16;;;16.85;45.90
41140;BME280;26881;48.784;9.192;2024-03-17T10:41:45;99080.09;;;17.88;45.61
41140;BME280;26881;48.784;9.192;2024-03-17T10:47:12;99084.16;;;18.24;45.94
41140;BME280;26881;48.784;9.192;2024-03-17T10:52:41;99069.97;;;20.68;40.17
41140;BME280;26881;48.784;9.192;2024-03-17T11:03:36;99059.63;;;22.13;34.53
41140;BME280;26881;48.784;9.192;2024-03-17T11:08:57;99066.28;;;21.63;36.19
41140;BME280;26881;48.784;9.192;2024-03-17T11:14:19;99071.25;;;18.84;40.27
41140;BME280;26881;48.784;9.192;2024-03-17T11:19:43;99060.28;;;19.39;40.73
41140;BME280;26881;48.784;9.192;2024-03-17T11:25:39;99065.25;;;18.50;40.63
41140;BME280;26881;48.784;9.192;2024-03-17T11:31:01;99064.50;;;17.40;44.05
41140;BME280;26881;48.784;9.192;2024-03-17T11:41:50;99039.34;;;19.36;40.63
41140;BME280;26881;48.784;9.192;2024-03-17T11:47:11;99034.47;;;19.82;40.00
41140;BME280;26881;48.784;9.192;2024-03-17T11:52:32;99032.25;;;18.96;41.13
41140;BME280;26881;48.784;9.192;2024-03-17T11:57:56;99030.66;;;17.77;42.64
41140;BME280;26881;48.784;9.192;2024-03-17T12:03:17;99032.53;;;17.98;43.39
41140;BME280;26881;48.784;9.192;2024-03-17T12:08:38;99026.66;;;17.51;45.54
41140;BME280;26881;48.784;9.192;2024-03-17T12:13:59;99025.22;;;17.46;46.45
41140;BME280;26881;48.784;9.192;2024-03-17T12:19:20;99016.81;;;17.30;47.13
41140;BME280;26881;48.784;9.192;2024-03-17T12:24:43;99023.81;;;16.97;47.84
41140;BME280;26881;48.784;9.192;2024-03-17T12:30:08;99021.28;;;16.96;46.97
41140;BME280;26881;48.784;9.192;2024-03-17T12:35:29;99010.25;;;17.02;45.93
41140;BME280;26881;48.784;9.192;2024-03-17T12:40:50;99005.16;;;17.33;45.39
41140;BME280;26881;48.784;9.192;2024-03-17T12:46:13;98996.56;;;17.52;45.90
41140;BME280;26881;48.784;9.192;2024-03-17T12:51:34;98989.03;;;17.36;45.24
41140;BME280;26881;48.784;9.192;2024-03-17T12:57:07;98986.47;;;17.02;45.85
41140;BME280;26881;48.784;9.192;2024-03-17T13:02:47;98982.63;;;16.83;46.23
41140;BME280;26881;48.784;9.192;2024-03-17T13:08:08;98989.81;;;16.23;46.97
41140;BME280;26881;48.784;9.192;2024-03-17T13:13:29;98993.31;;;16.35;48.03
41140;BME280;26881;48.784;9.192;2024-03-17T13:18:50;98983.38;;;16.50;46.98
41140;BME280;26881;48.784;9.192;2024-03-17T13:24:11;98977.63;;;16.56;47.03
41140;BME280;26881;48.784;9.192;2024-03-17T13:29:32;98968.78;;;16.80;45.46
41140;BME280;26881;48.784;9.192;2024-03-17T13:34:53;98969.13;;;16.64;46.16
41140;BME280;26881;48.784;9.192;2024-03-17T13:40:17;98963.97;;;16.96;46.14
41140;BME280;26881;48.784;9.192;2024-03-17T13:45:41;98956.03;;;17.08;45.23
41140;BME280;26881;48.784;9.192;2024-03-17T13:51:03;98942.72;;;16.98;45.29
41140;BME280;26881;48.784;9.192;2024-03-17T13:56:26;98938.41;;;17.52;44.75
41140;BME280;26881;48.784;9.192;2024-03-17T14:01:47;98940.91;;;17.21;45.10
41140;BME280;26881;48.784;9.192;2024-03-17T14:07:10;98933.00;;;16.64;45.33
41140;BME280;26881;48.784;9.192;2024-03-17T14:12:31;98934.22;;;16.72;46.89
41140;BME280;26881;48.784;9.192;2024-03-17T14:17:52;98930.88;;;16.81;46.23
41140;BME280;26881;48.784;9.192;2024-03-17T14:23:13;98911.34;;;17.48;44.23
41140;BME280;26881;48.784;9.192;2024-03-17T14:28:34;98902.38;;;17.72;44.31
41140;BME280;26881;48.784;9.192;2024-03-17T14:33:55;98895.78;;;18.29;43.09
41140;BME280;26881;48.784;9.192;2024-03-17T14:39:16;98898.31;;;18.30;41.95
41140;BME280;26881;48.784;9.192;2024-03-17T14:44:36;98902.47;;;18.94;41.07
41140;BME280;26881;48.784;9.192;2024-03-17T14:49:58;98882.66;;;18.89;40.66
41140;BME280;26881;48.784;9.192;2024-03-17T14:55:19;98874.34;;;19.81;39.14
41140;BME280;26881;48.784;9.192;2024-03-17T15:00:39;98887.22;;;19.76;38.71
41140;BME280;26881;48.784;9.192;2024-03-17T15:06:01;98876.94;;;18.84;39.57
41140;BME280;26881;48.784;9.192;2024-03-17T15:11:24;98871.03;;;18.40;41.73
41140;BME280;26881;48.784;9.192;2024-03-17T15:16:45;98867.91;;;18.04;43.00
41140;BME280;26881;48.784;9.192;2024-03-17T15:22:06;98872.75;;;17.24;43.34
41140;BME280;26881;48.784;9.192;2024-03-17T15:27:27;98874.69;;;16.79;44.87
41140;BME280;26881;48.784;9.192;2024-03-17T15:32:49;98877.53;;;16.19;46.47
41140;BME280;26881;48.784;9.192;2024-03-17T15:38:10;98878.00;;;16.25;47.44
41140;BME280;26881;48.784;9.192;2024-03-17T15:43:30;98867.47;;;16.13;48.25
41140;BME280;26881;48.784;9.192;2024-03-17T15:48:52;98861.53;;;15.87;48.75
41140;BME280;26881;48.784;9.192;2024-03-17T15:54:14;98870.94;;;15.67;49.24
41140;BME280;26881;48.784;9.192;2024-03-17T15:59:34;98875.06;;;15.47;49.82
41140;BME280;26881;48.784;9.192;2024-03-17T16:04:55;98878.06;;;15.18;50.43
41140;BME280;26881;48.784;9.192;2024-03-17T16:10:19;98877.81;;;14.98;51.50
41140;BME280;26881;48.784;9.192;2024-03-17T16:15:42;98872.94;;;14.80;52.25
41140;BME280;26881;48.784;9.192;2024-03-17T16:21:19;98870.66;;;14.63;52.56
41140;BME280;26881;48.784;9.192;2024-03-17T16:26:41;98863.38;;;14.53;52.86
41140;BME280;26881;48.784;9.192;2024-03-17T16:32:03;98855.06;;;14.47;53.26
41140;BME280;26881;48.784;9.192;2024-03-17T16:37:24;98863.28;;;14.42;53.66
41140;BME280;26881;48.784;9.192;2024-03-17T16:42:46;98860.56;;;14.31;54.19
41140;BME280;26881;48.784;9.192;2024-03-17T16:48:07;98863.31;;;14.17;54.46
41140;BME280;26881;48.784;9.192;2024-03-17T16:53:29;98867.31;;;13.97;55.70
41140;BME280;26881;48.784;9.192;2024-03-17T16:58:49;98862.47;;;13.90;56.62
41140;BME280;26881;48.784;9.192;2024-03-17T17:04:10;98863.31;;;13.78;57.17
41140;BME280;26881;48.784;9.192;2024-03-17T17:09:31;98862.22;;;13.68;57.06
41140;BME280;26881;48.784;9.192;2024-03-17T17:14:52;98856.97;;;13.55;57.80
41140;BME280;26881;48.784;9.192;2024-03-17T17:20:13;98850.09;;;13.40;57.98
41140;BME280;26881;48.784;9.192;2024-03-17T17:25:34;98846.94;;;13.35;58.40
41140;BME280;26881;48.784;9.192;2024-03-17T17:30:55;98854.56;;;13.25;59.13
41140;BME280;26881;48.784;9.192;2024-03-17T17:36:16;98845.69;;;13.13;59.98
41140;BME280;26881;48.784;9.192;2024-03-17T17:41:38;98842.91;;;13.02;60.51
41140;BME280;26881;48.784;9.192;2024-03-17T17:47:02;98844.25;;;12.95;60.66
41140;BME280;26881;48.784;9.192;2024-03-17T17:52:23;98845.59;;;12.88;61.84
41140;BME280;26881;48.784;9.192;2024-03-17T17:57:45;98853.00;;;12.81;61.73
41140;BME280;26881;48.784;9.192;2024-03-17T18:03:06;98851.44;;;12.78;61.75
41140;BME280;26881;48.784;9.192;2024-03-17T18:08:28;98854.25;;;12.75;61.78
41140;BME280;26881;48.784;9.192;2024-03-17T18:13:49;98852.84;;;12.70;62.80
41140;BME280;26881;48.784;9.192;2024-03-17T18:19:10;98855.00;;;12.63;64.95
41140;BME280;26881;48.784;9.192;2024-03-17T18:24:31;98851.09;;;12.56;63.84
41140;BME280;26881;48.784;9.192;2024-03-17T18:29:52;98856.00;;;12.48;64.82
41140;BME280;26881;48.784;9.192;2024-03-17T18:35:13;98855.53;;;12.41;66.22
41140;BME280;26881;48.784;9.192;2024-03-17T18:40:34;98862.91;;;12.34;66.82
41140;BME280;26881;48.784;9.192;2024-03-17T18:45:55;98860.09;;;12.23;68.02
41140;BME280;26881;48.784;9.192;2024-03-17T18:51:17;98860.97;;;11.79;70.34
41140;BME280;26881;48.784;9.192;2024-03-17T18:56:39;98865.91;;;11.69;71.98
41140;BME280;26881;48.784;9.192;2024-03-17T19:01:59;98873.41;;;11.61;71.87
41140;BME280;26881;48.784;9.192;2024-03-17T19:07:20;98868.94;;;11.33;74.80
41140;BME280;26881;48.784;9.192;2024-03-17T19:12:45;98872.47;;;11.32;75.18
41140;BME280;26881;48.784;9.192;2024-03-17T19:18:06;98865.69;;;11.28;76.41
41140;BME280;26881;48.784;9.192;2024-03-17T19:23:30;98869.09;;;11.14;77.52
41140;BME280;26881;48.784;9.192;2024-03-17T19:28:52;98868.88;;;11.03;78.67
41140;BME280;26881;48.784;9.192;2024-03-17T19:34:16;98873.38;;;11.01;78.74
41140;BME280;26881;48.784;9.192;2024-03-17T19:39:37;98858.06;;;10.93;79.38
41140;BME280;26881;48.784;9.192;2024-03-17T19:44:59;98855.22;;;10.82;80.67
41140;BME280;26881;48.784;9.192;2024-03-17T19:50:20;98855.63;;;10.90;80.05
41140;BME280;26881;48.784;9.192;2024-03-17T19:55:46;98847.03;;;10.88;80.20
41140;BME280;26881;48.784;9.192;2024-03-17T20:01:08;98840.63;;;10.78;81.08
41140;BME280;26881;48.784;9.192;2024-03-17T20:06:29;98847.03;;;10.72;82.35
41140;BME280;26881;48.784;9.192;2024-03-17T20:11:50;98858.19;;;10.75;81.99
41140;BME280;26881;48.784;9.192;2024-03-17T20:17:11;98851.16;;;10.76;82.78
41140;BME280;26881;48.784;9.192;2024-03-17T20:22:32;98845.41;;;10.69;82.22
41140;BME280;26881;48.784;9.192;2024-03-17T20:27:53;98834.81;;;10.72;81.34
41140;BME280;26881;48.784;9.192;2024-03-17T20:33:17;98834.56;;;10.77;80.95
41140;BME280;26881;48.784;9.192;2024-03-17T20:38:38;98819.38;;;10.68;81.95
41140;BME280;26881;48.784;9.192;2024-03-17T20:43:59;98810.66;;;10.67;82.72
41140;BME280;26881;48.784;9.192;2024-03-17T20:49:20;98813.44;;;10.64;82.69
41140;BME280;26881;48.784;9.192;2024-03-17T20:54:41;98810.75;;;10.50;83.69
41140;BME280;26881;48.784;9.192;2024-03-17T21:00:03;98824.16;;;10.44;83.71
41140;BME280;26881;48.784;9.192;2024-03-17T21:05:32;98816.16;;;10.47;83.87
41140;BME280;26881;48.784;9.192;2024-03-17T21:10:57;98806.09;;;10.23;85.41
41140;BME280;26881;48.784;9.192;2024-03-17T21:16:19;98790.28;;;10.25;85.17
41140;BME280;26881;48.784;9.192;2024-03-17T21:21:40;98798.31;;;10.22;86.32
41140;BME280;26881;48.784;9.192;2024-03-17T21:27:01;98791.56;;;10.18;86.76
41140;BME280;26881;48.784;9.192;2024-03-17T21:32:22;98787.78;;;10.23;86.01
41140;BME280;26881;48.784;9.192;2024-03-17T21:37:44;98782.56;;;10.23;86.12
41140;BME280;26881;48.784;9.192;2024-03-17T21:43:05;98776.88;;;10.15;86.64
41140;BME280;26881;48.784;9.192;2024-03-17T21:48:26;98769.03;;;10.15;86.39
41140;BME280;26881;48.784;9.192;2024-03-17T21:53:49;98762.63;;;10.21;86.26
41140;BME280;26881;48.784;9.192;2024-03-17T21:59:10;98761.03;;;10.18;86.80
41140;BME280;26881;48.784;9.192;2024-03-17T22:04:31;98760.53;;;10.27;86.72
41140;BME280;26881;48.784;9.192;2024-03-17T22:09:53;98751.69;;;10.14;87.59
41140;BME280;26881;48.784;9.192;2024-03-17T22:15:14;98758.59;;;10.15;88.37
41140;BME280;26881;48.784;9.192;2024-03-17T22:20:34;98753.69;;;10.09;89.65
41140;BME280;26881;48.784;9.192;2024-03-17T22:25:57;98746.78;;;10.08;90.53
41140;BME280;26881;48.784;9.192;2024-03-17T22:31:19;98737.88;;;10.12;92.77
41140;BME280;26881;48.784;9.192;2024-03-17T22:36:40;98742.41;;;10.24;93.00
41140;BME280;26881;48.784;9.192;2024-03-17T22:42:01;98739.59;;;10.11;96.15
41140;BME280;26881;48.784;9.192;2024-03-17T22:47:22;98724.19;;;10.07;99.64
41140;BME280;26881;48.784;9.192;2024-03-17T22:52:43;98727.16;;;10.01;100.00
41140;BME280;26881;48.784;9.192;2024-03-17T22:58:04;98728.16;;;9.98;100.00
41140;BME280;26881;48.784;9.192;2024-03-17T23:03:26;98718.72;;;9.96;100.00
41140;BME280;26881;48.784;9.192;2024-03-17T23:08:47;98727.31;;;9.98;100.00
41140;BME280;26881;48.784;9.192;2024-03-17T23:14:08;98728.22;;;9.97;100.00
41140;BME280;26881;48.784;9.192;2024-03-17T23:19:29;98720.66;;;10.08;100.00
41140;BME280;26881;48.784;9.192;2024-03-17T23:24:50;98729.94;;;9.98;100.00
41140;BME280;26881;48.784;9.192;2024-03-17T23:30:11;98724.97;;;9.93;100.00
41140;BME280;26881;48.784;9.192;2024-03-17T23:35:32;98716.09;;;9.96;100.00
41140;BME280;26881;48.784;9.192;2024-03-17T23:40:54;98711.13;;;9.91;100.00
41140;BME280;26881;48.784;9.192;2024-03-17T23:46:15;98702.09;;;9.97;100.00
41140;BME280;26881;48.784;9.192;2024-03-17T23:51:39;98697.72;;;9.97;100.00
41140;BME280;26881;48.784;9.192;2024-03-17T23:57:00;98697.38;;;10.03;100.00
